createdAt,value
2023-03-31T00:00:54.713Z,14.50
2023-03-31T00:03:44.425Z,14.30
2023-03-31T00:06:38.366Z,14.50
2023-03-31T00:09:24.214Z,14.80
2023-03-31T00:12:09.656Z,14.70
2023-03-31T00:14:55.493Z,14.80
2023-03-31T00:17:41.208Z,15.00
2023-03-31T00:20:27.307Z,15.00
2023-03-31T00:23:14.664Z,14.70
2023-03-31T00:26:00.492Z,14.60
2023-03-31T00:28:46.384Z,14.50
2023-03-31T00:31:32.502Z,14.60
2023-03-31T00:34:18.640Z,14.80
2023-03-31T00:37:05.599Z,14.70
2023-03-31T00:39:51.433Z,14.80
2023-03-31T00:42:44.553Z,14.60
2023-03-31T00:45:31.379Z,14.30
2023-03-31T00:48:20.033Z,14.60
2023-03-31T00:51:07.831Z,14.80
2023-03-31T00:54:06.150Z,14.90
2023-03-31T00:56:55.611Z,14.10
2023-03-31T00:59:48.067Z,14.00
2023-03-31T01:02:34.057Z,13.80
2023-03-31T01:05:23.123Z,13.00
2023-03-31T01:08:09.371Z,13.10
2023-03-31T01:11:00.581Z,13.00
2023-03-31T01:13:51.079Z,12.90
2023-03-31T01:16:39.913Z,12.90
2023-03-31T01:19:48.761Z,12.80
2023-03-31T01:23:11.862Z,12.90
2023-03-31T01:26:22.303Z,12.90
2023-03-31T01:29:17.047Z,13.10
2023-03-31T01:32:12.161Z,13.20
2023-03-31T01:35:14.927Z,13.20
2023-03-31T01:38:09.471Z,12.30
2023-03-31T01:41:04.709Z,12.00
2023-03-31T01:43:55.016Z,12.20
2023-03-31T01:46:58.107Z,12.50
2023-03-31T01:50:12.662Z,13.10
2023-03-31T01:52:58.374Z,13.50
2023-03-31T01:55:53.099Z,13.60
2023-03-31T01:59:08.303Z,13.80
2023-03-31T02:02:06.377Z,13.60
2023-03-31T02:05:29.379Z,13.30
2023-03-31T02:08:40.558Z,13.30
2023-03-31T02:11:29.139Z,13.50
2023-03-31T02:14:18.915Z,13.30
2023-03-31T02:17:08.613Z,13.40
2023-03-31T02:19:54.866Z,13.30
2023-03-31T02:22:46.050Z,13.10
2023-03-31T02:25:38.525Z,13.10
2023-03-31T02:28:28.084Z,12.90
2023-03-31T02:31:19.545Z,12.80
2023-03-31T02:34:05.964Z,12.70
2023-03-31T02:36:52.624Z,12.70
2023-03-31T02:39:40.648Z,12.50
2023-03-31T02:42:26.213Z,12.40
2023-03-31T02:45:38.623Z,12.50
2023-03-31T02:48:32.567Z,12.10
2023-03-31T02:51:42.449Z,12.00
2023-03-31T02:54:53.482Z,11.80
2023-03-31T02:58:18.378Z,12.30
2023-03-31T03:01:22.893Z,12.70
2023-03-31T03:04:19.309Z,12.20
2023-03-31T03:07:13.458Z,12.30
2023-03-31T03:10:14.975Z,12.50
2023-03-31T03:13:19.318Z,12.20
2023-03-31T03:16:19.219Z,11.90
2023-03-31T03:19:07.574Z,11.90
2023-03-31T03:21:53.205Z,12.10
2023-03-31T03:24:40.071Z,12.40
2023-03-31T03:27:25.931Z,12.60
2023-03-31T03:30:13.515Z,12.30
2023-03-31T03:33:00.059Z,12.10
2023-03-31T03:35:45.735Z,12.10
2023-03-31T03:38:31.466Z,12.40
2023-03-31T03:41:17.413Z,12.60
2023-03-31T03:44:02.917Z,12.60
2023-03-31T03:46:48.698Z,12.80
2023-03-31T03:49:34.517Z,12.90
2023-03-31T03:52:21.379Z,12.80
2023-03-31T03:55:07.278Z,12.80
2023-03-31T03:57:53.358Z,12.80
2023-03-31T04:00:38.835Z,12.80
2023-03-31T04:03:24.929Z,12.80
2023-03-31T04:06:10.804Z,12.60
2023-03-31T04:08:56.304Z,12.60
2023-03-31T04:11:42.218Z,12.50
2023-03-31T04:14:28.058Z,12.40
2023-03-31T04:17:15.866Z,12.50
2023-03-31T04:20:10.248Z,12.40
2023-03-31T04:22:56.004Z,12.50
2023-03-31T04:25:46.368Z,12.40
2023-03-31T04:28:35.099Z,12.20
2023-03-31T04:31:25.772Z,12.20
2023-03-31T04:34:15.828Z,12.10
2023-03-31T04:37:02.886Z,12.10
2023-03-31T04:39:51.041Z,12.00
2023-03-31T04:42:37.610Z,12.00
2023-03-31T04:45:23.480Z,12.00
2023-03-31T04:48:09.649Z,12.10
2023-03-31T04:50:55.391Z,12.10
2023-03-31T04:53:41.601Z,12.20
2023-03-31T04:56:27.364Z,10.90
2023-03-31T04:59:12.969Z,12.20
2023-03-31T05:01:58.396Z,12.30
2023-03-31T05:04:43.874Z,12.30
2023-03-31T05:07:29.482Z,12.30
2023-03-31T05:10:15.596Z,12.20
2023-03-31T05:13:01.339Z,12.20
2023-03-31T05:15:50.837Z,12.30
2023-03-31T05:18:37.157Z,12.40
2023-03-31T05:21:24.066Z,12.30
2023-03-31T05:24:10.071Z,11.90
2023-03-31T05:26:57.600Z,12.20
2023-03-31T05:29:44.374Z,12.30
2023-03-31T05:32:30.347Z,12.20
2023-03-31T05:35:16.370Z,12.50
2023-03-31T05:38:03.042Z,12.60
2023-03-31T05:40:49.086Z,12.70
2023-03-31T05:43:35.661Z,12.80
2023-03-31T05:46:21.913Z,12.80
2023-03-31T05:49:08.405Z,12.80
2023-03-31T05:51:54.928Z,12.80
2023-03-31T05:54:42.239Z,12.70
2023-03-31T05:57:28.261Z,12.70
2023-03-31T06:00:14.884Z,12.80
2023-03-31T06:03:00.665Z,13.00
2023-03-31T06:05:49.868Z,13.10
2023-03-31T06:08:37.918Z,13.20
2023-03-31T06:11:23.612Z,13.00
2023-03-31T06:14:09.043Z,13.00
2023-03-31T06:16:56.675Z,13.30
2023-03-31T06:19:43.331Z,13.60
2023-03-31T06:22:29.342Z,13.70
2023-03-31T06:25:15.497Z,14.30
2023-03-31T06:28:04.462Z,13.50
2023-03-31T06:30:50.686Z,13.60
2023-03-31T06:33:36.913Z,13.80
2023-03-31T06:36:23.529Z,13.30
2023-03-31T06:39:09.436Z,13.80
2023-03-31T06:41:55.908Z,13.80
2023-03-31T06:44:46.509Z,13.60
2023-03-31T06:47:32.894Z,13.20
2023-03-31T06:50:19.735Z,12.80
2023-03-31T06:53:06.445Z,12.90
2023-03-31T06:55:52.845Z,13.30
2023-03-31T06:58:39.508Z,13.60
2023-03-31T07:01:26.242Z,13.60
2023-03-31T07:04:12.579Z,13.80
2023-03-31T07:06:59.637Z,14.10
2023-03-31T07:09:46.028Z,14.10
2023-03-31T07:12:34.352Z,14.00
2023-03-31T07:15:21.168Z,14.00
2023-03-31T07:18:07.505Z,13.70
2023-03-31T07:20:53.596Z,13.50
2023-03-31T07:23:40.195Z,13.60
2023-03-31T07:26:27.593Z,13.80
2023-03-31T07:29:14.318Z,14.00
2023-03-31T07:32:00.340Z,13.70
2023-03-31T07:34:46.779Z,13.50
2023-03-31T07:37:47.485Z,13.60
2023-03-31T07:40:34.500Z,13.10
2023-03-31T07:43:21.792Z,14.30
2023-03-31T07:46:13.911Z,14.20
2023-03-31T07:49:02.368Z,14.00
2023-03-31T07:51:48.559Z,12.70
2023-03-31T07:54:35.212Z,14.00
2023-03-31T07:57:21.510Z,13.90
2023-03-31T08:00:11.269Z,14.20
2023-03-31T08:03:00.841Z,14.00
2023-03-31T08:05:47.380Z,13.80
2023-03-31T08:08:33.752Z,13.90
2023-03-31T08:11:22.455Z,13.90
2023-03-31T08:14:08.447Z,14.00
2023-03-31T08:16:55.842Z,14.30
2023-03-31T08:19:42.585Z,14.80
2023-03-31T08:22:29.167Z,14.80
2023-03-31T08:25:15.832Z,14.70
2023-03-31T08:28:02.195Z,14.80
2023-03-31T08:30:48.788Z,15.30
2023-03-31T08:33:35.715Z,15.50
2023-03-31T08:36:22.468Z,15.50
2023-03-31T08:39:09.366Z,15.50
2023-03-31T08:42:11.363Z,15.40
2023-03-31T08:45:22.061Z,15.00
2023-03-31T08:48:31.189Z,15.80
2023-03-31T08:51:33.441Z,15.80
2023-03-31T08:54:22.792Z,15.30
2023-03-31T08:57:37.365Z,15.30
2023-03-31T09:00:24.233Z,15.50
2023-03-31T09:03:29.364Z,15.40
2023-03-31T09:06:24.058Z,15.00
2023-03-31T09:09:15.814Z,14.80
2023-03-31T09:12:11.629Z,15.30
2023-03-31T09:15:23.536Z,15.40
2023-03-31T09:18:26.790Z,15.70
2023-03-31T09:21:23.594Z,15.20
2023-03-31T09:24:32.770Z,15.10
2023-03-31T09:27:23.260Z,15.10
2023-03-31T09:30:23.430Z,15.40
2023-03-31T09:33:28.596Z,15.70
2023-03-31T09:36:25.235Z,13.90
2023-03-31T09:39:15.257Z,15.10
2023-03-31T09:42:02.297Z,15.00
2023-03-31T09:44:52.093Z,15.00
2023-03-31T09:47:59.832Z,15.30
2023-03-31T09:51:02.047Z,15.60
2023-03-31T09:54:06.823Z,16.20
2023-03-31T09:56:54.285Z,16.80
2023-03-31T09:59:41.472Z,16.80
2023-03-31T10:02:36.183Z,16.30
2023-03-31T10:05:59.670Z,16.10
2023-03-31T10:08:55.882Z,16.10
2023-03-31T10:12:12.161Z,16.90
2023-03-31T10:15:21.496Z,17.50
2023-03-31T10:18:13.975Z,17.60
2023-03-31T10:21:02.970Z,17.60
2023-03-31T10:23:52.222Z,17.30
2023-03-31T10:26:40.353Z,17.50
2023-03-31T10:29:35.256Z,17.60
2023-03-31T10:32:29.401Z,17.70
2023-03-31T10:35:27.788Z,17.40
2023-03-31T10:38:38.339Z,18.30
2023-03-31T10:41:33.884Z,18.00
2023-03-31T10:44:38.557Z,17.20
2023-03-31T10:47:26.384Z,17.10
2023-03-31T10:50:16.968Z,17.60
2023-03-31T10:53:07.591Z,18.80
2023-03-31T10:56:15.013Z,18.90
2023-03-31T10:59:05.711Z,18.80
2023-03-31T11:02:11.620Z,18.80
2023-03-31T11:05:16.109Z,19.20
2023-03-31T11:08:20.275Z,19.20
2023-03-31T11:11:47.989Z,18.90
2023-03-31T11:14:57.952Z,19.00
2023-03-31T11:17:51.023Z,18.90
2023-03-31T11:20:43.510Z,18.30
2023-03-31T11:23:43.256Z,18.20
2023-03-31T11:26:41.473Z,18.40
2023-03-31T11:29:34.478Z,17.40
2023-03-31T11:32:51.893Z,18.00
2023-03-31T11:35:51.436Z,19.40
2023-03-31T11:39:39.455Z,19.30
2023-03-31T11:42:37.562Z,19.50
2023-03-31T11:45:32.454Z,19.00
2023-03-31T11:48:49.795Z,18.90
2023-03-31T11:51:57.428Z,18.90
2023-03-31T11:54:47.377Z,19.40
2023-03-31T11:57:36.673Z,19.90
2023-03-31T12:00:55.936Z,19.90
2023-03-31T12:04:00.053Z,21.00
2023-03-31T12:06:49.735Z,22.20
2023-03-31T12:10:06.047Z,21.70
2023-03-31T12:12:57.675Z,23.20
2023-03-31T12:16:21.177Z,23.00
2023-03-31T12:19:17.271Z,22.60
2023-03-31T12:22:30.162Z,22.60
2023-03-31T12:28:25.117Z,21.10
2023-03-31T12:31:19.290Z,21.40
2023-03-31T12:34:16.978Z,21.00
2023-03-31T12:37:48.265Z,21.30
2023-03-31T12:40:53.510Z,21.30
2023-03-31T12:44:05.067Z,21.30
2023-03-31T12:47:07.343Z,21.30
2023-03-31T12:50:06.632Z,20.90
2023-03-31T12:53:25.181Z,20.60
2023-03-31T12:56:11.623Z,20.70
2023-03-31T12:59:18.793Z,20.60
2023-03-31T13:02:17.337Z,20.30
2023-03-31T13:05:39.170Z,20.10
2023-03-31T13:08:52.193Z,20.30
2023-03-31T13:11:41.229Z,20.20
2023-03-31T13:14:36.104Z,20.20
2023-03-31T13:17:26.379Z,20.40
2023-03-31T13:20:18.252Z,20.50
2023-03-31T13:23:12.215Z,20.50
2023-03-31T13:25:59.206Z,20.20
2023-03-31T13:29:22.287Z,19.80
2023-03-31T13:32:20.805Z,19.70
2023-03-31T13:35:19.012Z,19.60
2023-03-31T13:38:26.878Z,19.50
2023-03-31T13:41:41.128Z,19.50
2023-03-31T13:45:18.235Z,19.60
2023-03-31T13:48:18.914Z,19.80
2023-03-31T13:51:33.300Z,19.90
2023-03-31T13:54:50.813Z,19.90
2023-03-31T13:57:58.733Z,20.00
2023-03-31T14:01:26.263Z,20.10
2023-03-31T14:04:59.259Z,20.50
2023-03-31T14:08:29.893Z,19.90
2023-03-31T14:11:28.996Z,20.10
2023-03-31T14:14:17.682Z,20.30
2023-03-31T14:17:04.312Z,20.00
2023-03-31T14:20:02.083Z,20.10
2023-03-31T14:23:12.753Z,19.90
2023-03-31T14:26:04.695Z,19.90
2023-03-31T14:29:11.018Z,20.20
2023-03-31T14:32:20.940Z,20.20
2023-03-31T14:35:24.101Z,20.20
2023-03-31T14:38:30.034Z,20.20
2023-03-31T14:41:21.410Z,19.70
2023-03-31T14:44:13.157Z,19.90
2023-03-31T14:46:59.800Z,20.00
2023-03-31T14:49:46.577Z,20.10
2023-03-31T14:52:34.264Z,20.10
2023-03-31T14:55:26.676Z,20.10
2023-03-31T14:58:27.344Z,20.10
2023-03-31T15:01:19.230Z,20.10
2023-03-31T15:04:16.111Z,20.30
2023-03-31T15:07:05.258Z,20.30
2023-03-31T15:09:51.987Z,20.30
2023-03-31T15:12:38.533Z,20.10
2023-03-31T15:15:34.368Z,20.10
2023-03-31T15:18:20.735Z,20.20
2023-03-31T15:21:10.923Z,20.10
2023-03-31T15:23:57.221Z,20.00
2023-03-31T15:26:49.762Z,20.00
2023-03-31T15:29:43.564Z,19.90
2023-03-31T15:32:37.066Z,19.90
2023-03-31T15:35:36.870Z,20.10
2023-03-31T15:38:28.208Z,20.30
2023-03-31T15:41:17.275Z,20.20
2023-03-31T15:44:29.849Z,20.30
2023-03-31T15:47:30.217Z,20.20
2023-03-31T15:50:17.148Z,20.30
2023-03-31T15:53:28.226Z,20.40
2023-03-31T15:56:42.871Z,20.00
2023-03-31T15:59:41.797Z,19.50
2023-03-31T16:02:47.571Z,19.10
2023-03-31T16:05:58.997Z,18.70
2023-03-31T16:09:37.469Z,18.60
2023-03-31T16:12:29.835Z,18.70
2023-03-31T16:15:25.960Z,18.60
2023-03-31T16:18:42.738Z,17.40
2023-03-31T16:21:36.518Z,17.70
2023-03-31T16:24:33.494Z,17.60
2023-03-31T16:27:19.546Z,17.60
2023-03-31T16:30:28.187Z,17.30
2023-03-31T16:33:17.925Z,17.30
2023-03-31T16:36:04.531Z,17.20
2023-03-31T16:38:53.967Z,17.20
2023-03-31T16:41:40.376Z,17.00
2023-03-31T16:44:27.124Z,17.00
2023-03-31T16:47:27.694Z,17.10
2023-03-31T16:50:18.148Z,17.00
2023-03-31T16:53:04.432Z,17.00
2023-03-31T16:55:50.895Z,16.90
2023-03-31T16:58:38.885Z,16.90
2023-03-31T17:01:26.697Z,16.90
2023-03-31T17:04:13.942Z,17.00
2023-03-31T17:10:16.755Z,16.90
2023-03-31T17:13:06.712Z,16.80
2023-03-31T17:16:04.746Z,16.90
2023-03-31T17:19:30.274Z,16.90
2023-03-31T17:22:17.239Z,16.70
2023-03-31T17:25:09.184Z,16.70
2023-03-31T17:27:56.364Z,16.60
2023-03-31T17:30:44.452Z,16.90
2023-03-31T17:33:30.861Z,17.30
2023-03-31T17:36:23.693Z,17.60
2023-03-31T17:39:13.704Z,17.80
2023-03-31T17:41:59.727Z,17.70
2023-03-31T17:44:48.025Z,17.50
2023-03-31T17:47:34.234Z,17.60
2023-03-31T17:50:21.470Z,17.70
2023-03-31T17:53:09.201Z,17.90
2023-03-31T17:55:55.614Z,17.80
2023-03-31T17:58:41.815Z,17.70
2023-03-31T18:01:28.389Z,17.60
2023-03-31T18:04:15.360Z,17.50
2023-03-31T18:07:01.600Z,17.30
2023-03-31T18:09:47.610Z,17.30
2023-03-31T18:12:47.965Z,17.30
2023-03-31T18:15:37.579Z,17.20
2023-03-31T18:18:27.005Z,16.80
2023-03-31T18:21:16.093Z,17.00
2023-03-31T18:24:02.839Z,17.10
2023-03-31T18:26:49.300Z,17.00
2023-03-31T18:29:35.714Z,17.10
2023-03-31T18:32:30.807Z,16.90
2023-03-31T18:35:17.816Z,16.70
2023-03-31T18:38:04.230Z,16.90
2023-03-31T18:40:52.895Z,16.80
2023-03-31T18:43:39.391Z,16.70
2023-03-31T18:46:25.643Z,16.70
2023-03-31T18:49:13.160Z,16.70
2023-03-31T18:51:59.483Z,17.00
2023-03-31T18:54:45.761Z,16.90
2023-03-31T18:57:38.211Z,16.60
2023-03-31T19:00:24.698Z,16.70
2023-03-31T19:03:11.008Z,16.80
2023-03-31T19:06:11.071Z,16.70
2023-03-31T19:08:57.089Z,16.60
2023-03-31T19:11:43.167Z,16.80
2023-03-31T19:14:30.403Z,16.90
2023-03-31T19:17:17.922Z,17.00
2023-03-31T19:20:08.739Z,16.80
2023-03-31T19:22:54.642Z,16.80
2023-03-31T19:25:40.412Z,16.40
2023-03-31T19:28:28.047Z,16.00
2023-03-31T19:31:15.500Z,16.40
2023-03-31T19:34:01.482Z,16.30
2023-03-31T19:36:48.096Z,16.20
2023-03-31T19:39:33.919Z,15.90
2023-03-31T19:42:20.232Z,16.10
2023-03-31T19:45:06.893Z,16.20
2023-03-31T19:47:52.998Z,16.00
2023-03-31T19:50:39.488Z,15.70
2023-03-31T19:53:28.223Z,15.50
2023-03-31T19:56:18.090Z,15.80
2023-03-31T19:59:04.880Z,15.90
2023-03-31T20:01:51.285Z,15.30
2023-03-31T20:04:37.437Z,15.10
2023-03-31T20:07:24.064Z,15.20
2023-03-31T20:10:11.664Z,15.40
2023-03-31T20:13:04.539Z,15.10
2023-03-31T20:16:02.183Z,15.30
2023-03-31T20:19:00.542Z,15.70
2023-03-31T20:21:49.187Z,16.20
2023-03-31T20:24:35.799Z,16.30
2023-03-31T20:27:26.375Z,16.20
2023-03-31T20:30:12.752Z,16.10
2023-03-31T20:32:58.714Z,16.20
2023-03-31T20:35:46.936Z,16.10
2023-03-31T20:38:34.374Z,15.70
2023-03-31T20:41:24.288Z,15.70
2023-03-31T20:44:13.589Z,15.70
2023-03-31T20:47:02.189Z,15.60
2023-03-31T20:49:49.220Z,15.50
2023-03-31T20:52:35.889Z,15.20
2023-03-31T20:55:22.029Z,15.00
2023-03-31T20:58:08.194Z,15.10
2023-03-31T21:00:59.340Z,15.10
2023-03-31T21:03:48.540Z,14.50
2023-03-31T21:06:48.496Z,14.60
2023-03-31T21:09:35.180Z,14.10
2023-03-31T21:12:21.739Z,14.00
2023-03-31T21:15:08.383Z,14.50
2023-03-31T21:17:54.742Z,14.80
2023-03-31T21:20:40.742Z,14.80
2023-03-31T21:23:29.136Z,14.80
2023-03-31T21:26:15.843Z,14.80
2023-03-31T21:29:02.126Z,14.70
2023-03-31T21:31:48.610Z,14.50
2023-03-31T21:34:34.431Z,14.40
2023-03-31T21:37:20.670Z,14.50
2023-03-31T21:40:07.509Z,14.30
2023-03-31T21:42:53.722Z,14.40
2023-03-31T21:45:40.361Z,14.30
2023-03-31T21:48:28.918Z,14.30
2023-03-31T21:51:15.355Z,14.30
2023-03-31T21:54:01.337Z,14.30
2023-03-31T21:56:47.251Z,14.20
2023-03-31T21:59:33.650Z,14.10
2023-03-31T22:02:20.261Z,14.00
2023-03-31T22:05:09.943Z,14.10
2023-03-31T22:07:56.493Z,14.20
2023-03-31T22:10:42.519Z,14.50
2023-03-31T22:13:29.918Z,14.60
2023-03-31T22:16:20.077Z,14.80
2023-03-31T22:19:07.109Z,14.80
2023-03-31T22:21:59.339Z,14.90
2023-03-31T22:24:45.766Z,14.80
2023-03-31T22:27:31.797Z,14.90
2023-03-31T22:30:18.014Z,14.90
2023-03-31T22:33:03.935Z,14.90
2023-03-31T22:35:50.613Z,14.80
2023-03-31T22:38:36.731Z,14.60
2023-03-31T22:41:22.667Z,14.50
2023-03-31T22:44:10.764Z,14.30
2023-03-31T22:46:57.516Z,14.10
2023-03-31T22:49:43.200Z,13.90
2023-03-31T22:52:29.402Z,13.90
2023-03-31T22:55:16.071Z,13.70
2023-03-31T22:58:01.950Z,13.70
2023-03-31T23:00:58.710Z,13.80
2023-03-31T23:03:46.160Z,13.70
2023-03-31T23:06:34.205Z,13.70
2023-03-31T23:09:23.773Z,13.70
2023-03-31T23:12:09.867Z,13.60
2023-03-31T23:14:55.917Z,13.70
2023-03-31T23:17:42.415Z,13.80
2023-03-31T23:20:29.765Z,13.80
2023-03-31T23:23:16.358Z,13.80
2023-03-31T23:26:06.685Z,13.90
2023-03-31T23:28:54.274Z,13.90
2023-03-31T23:31:40.626Z,13.70
2023-03-31T23:34:26.507Z,13.80
2023-03-31T23:37:14.519Z,14.00
2023-03-31T23:40:00.525Z,13.90
2023-03-31T23:42:46.915Z,13.90
2023-03-31T23:45:33.061Z,13.90
2023-03-31T23:48:19.353Z,13.80
2023-03-31T23:51:08.744Z,13.60
2023-03-31T23:53:55.010Z,13.70
2023-03-31T23:56:41.069Z,13.90
2023-03-31T23:59:27.953Z,13.90
